sensor_id;sensor_type;location;lat;lon;timestamp;temperature;humidity
10316;DHT22;5203;48.976;8.306;2023-11-18T00:00:35;6.50;99.90
10316;DHT22;5203;48.976;8.306;2023-11-18T00:03:01;6.50;99.90
10316;DHT22;5203;48.976;8.306;2023-11-18T00:05:26;6.50;99.90
10316;DHT22;5203;48.976;8.306;2023-11-18T00:07:52;6.50;99.90
10316;DHT22;5203;48.976;8.306;2023-11-18T00:10:18;6.50;99.90
10316;DHT22;5203;48.976;8.306;2023-11-18T00:12:44;6.50;99.90
10316;DHT22;5203;48.976;8.306;2023-11-18T00:15:10;6.40;99.90
10316;DHT22;5203;48.976;8.306;2023-11-18T00:17:37;6.40;99.90
10316;DHT22;5203;48.976;8.306;2023-11-18T00:20:04;6.40;99.90
10316;DHT22;5203;48.976;8.306;2023-11-18T00:22:37;6.40;99.90
10316;DHT22;5203;48.976;8.306;2023-11-18T00:25:04;6.40;99.90
10316;DHT22;5203;48.976;8.306;2023-11-18T00:27:36;6.50;99.90
10316;DHT22;5203;48.976;8.306;2023-11-18T00:30:06;6.40;99.90
10316;DHT22;5203;48.976;8.306;2023-11-18T00:32:34;6.50;99.90
10316;DHT22;5203;48.976;8.306;2023-11-18T00:35:01;6.40;99.90
10316;DHT22;5203;48.976;8.306;2023-11-18T00:37:26;6.50;99.90
10316;DHT22;5203;48.976;8.306;2023-11-18T00:39:52;6.50;99.90
10316;DHT22;5203;48.976;8.306;2023-11-18T00:42:18;6.50;99.90
10316;DHT22;5203;48.976;8.306;2023-11-18T00:44:44;6.50;99.90
10316;DHT22;5203;48.976;8.306;2023-11-18T00:47:10;6.50;99.90
10316;DHT22;5203;48.976;8.306;2023-11-18T00:49:35;6.50;99.90
10316;DHT22;5203;48.976;8.306;2023-11-18T00:52:01;6.50;99.90
10316;DHT22;5203;48.976;8.306;2023-11-18T00:54:29;6.50;99.90
10316;DHT22;5203;48.976;8.306;2023-11-18T00:56:55;6.40;99.90
10316;DHT22;5203;48.976;8.306;2023-11-18T00:59:21;6.40;99.90
10316;DHT22;5203;48.976;8.306;2023-11-18T01:01:47;6.40;99.90
10316;DHT22;5203;48.976;8.306;2023-11-18T01:04:14;6.40;99.90
10316;DHT22;5203;48.976;8.306;2023-11-18T01:06:41;6.40;99.90
10316;DHT22;5203;48.976;8.306;2023-11-18T01:09:08;6.40;99.90
10316;DHT22;5203;48.976;8.306;2023-11-18T01:11:35;6.40;99.90
10316;DHT22;5203;48.976;8.306;2023-11-18T01:14:01;6.40;99.90
10316;DHT22;5203;48.976;8.306;2023-11-18T01:16:27;6.30;99.90
10316;DHT22;5203;48.976;8.306;2023-11-18T01:18:54;6.30;99.90
10316;DHT22;5203;48.976;8.306;2023-11-18T01:21:20;6.30;99.90
10316;DHT22;5203;48.976;8.306;2023-11-18T01:23:47;6.30;99.90
10316;DHT22;5203;48.976;8.306;2023-11-18T01:26:14;6.30;99.90
10316;DHT22;5203;48.976;8.306;2023-11-18T01:28:41;6.20;99.90
10316;DHT22;5203;48.976;8.306;2023-11-18T01:31:11;6.20;99.90
10316;DHT22;5203;48.976;8.306;2023-11-18T01:33:37;6.20;99.90
10316;DHT22;5203;48.976;8.306;2023-11-18T01:36:08;6.20;99.90
10316;DHT22;5203;48.976;8.306;2023-11-18T01:38:35;6.20;99.90
10316;DHT22;5203;48.976;8.306;2023-11-18T01:41:03;6.20;99.90
10316;DHT22;5203;48.976;8.306;2023-11-18T01:43:30;6.20;99.90
10316;DHT22;5203;48.976;8.306;2023-11-18T01:46:03;6.20;99.90
10316;DHT22;5203;48.976;8.306;2023-11-18T01:48:31;6.20;99.90
10316;DHT22;5203;48.976;8.306;2023-11-18T01:50:59;6.20;99.90
10316;DHT22;5203;48.976;8.306;2023-11-18T01:53:26;6.10;99.90
10316;DHT22;5203;48.976;8.306;2023-11-18T01:55:54;6.10;99.90
10316;DHT22;5203;48.976;8.306;2023-11-18T01:58:20;6.10;99.90
10316;DHT22;5203;48.976;8.306;2023-11-18T02:00:48;6.10;99.90
10316;DHT22;5203;48.976;8.306;2023-11-18T02:03:16;6.10;99.90
10316;DHT22;5203;48.976;8.306;2023-11-18T02:05:42;6.10;99.90
10316;DHT22;5203;48.976;8.306;2023-11-18T02:08:09;6.10;99.90
10316;DHT22;5203;48.976;8.306;2023-11-18T02:10:46;6.10;99.90
10316;DHT22;5203;48.976;8.306;2023-11-18T02:13:34;6.10;99.90
10316;DHT22;5203;48.976;8.306;2023-11-18T02:16:04;6.10;99.90
10316;DHT22;5203;48.976;8.306;2023-11-18T02:18:32;6.10;99.90
10316;DHT22;5203;48.976;8.306;2023-11-18T02:20:59;6.10;99.90
10316;DHT22;5203;48.976;8.306;2023-11-18T02:23:26;6.10;99.90
10316;DHT22;5203;48.976;8.306;2023-11-18T02:25:52;6.10;99.90
10316;DHT22;5203;48.976;8.306;2023-11-18T02:28:18;6.20;99.90
10316;DHT22;5203;48.976;8.306;2023-11-18T02:30:45;6.20;99.90
10316;DHT22;5203;48.976;8.306;2023-11-18T02:33:40;6.20;99.90
10316;DHT22;5203;48.976;8.306;2023-11-18T02:36:31;6.20;99.90
10316;DHT22;5203;48.976;8.306;2023-11-18T02:39:06;6.20;99.90
10316;DHT22;5203;48.976;8.306;2023-11-18T02:41:35;6.20;99.90
10316;DHT22;5203;48.976;8.306;2023-11-18T02:44:03;6.20;99.90
10316;DHT22;5203;48.976;8.306;2023-11-18T02:46:34;6.20;99.90
10316;DHT22;5203;48.976;8.306;2023-11-18T02:49:01;6.20;99.90
10316;DHT22;5203;48.976;8.306;2023-11-18T02:51:28;6.20;99.90
10316;DHT22;5203;48.976;8.306;2023-11-18T02:53:55;6.20;99.90
10316;DHT22;5203;48.976;8.306;2023-11-18T02:56:20;6.20;99.90
10316;DHT22;5203;48.976;8.306;2023-11-18T02:58:47;6.20;99.90
10316;DHT22;5203;48.976;8.306;2023-11-18T03:01:13;6.20;99.90
10316;DHT22;5203;48.976;8.306;2023-11-18T03:03:38;6.20;99.90
10316;DHT22;5203;48.976;8.306;2023-11-18T03:06:04;6.20;99.90
10316;DHT22;5203;48.976;8.306;2023-11-18T03:08:31;6.20;99.90
10316;DHT22;5203;48.976;8.306;2023-11-18T03:10:57;6.20;99.90
10316;DHT22;5203;48.976;8.306;2023-11-18T03:13:24;6.20;99.90
10316;DHT22;5203;48.976;8.306;2023-11-18T03:15:50;6.30;99.90
10316;DHT22;5203;48.976;8.306;2023-11-18T03:18:16;6.20;99.90
10316;DHT22;5203;48.976;8.306;2023-11-18T03:20:41;6.20;99.90
10316;DHT22;5203;48.976;8.306;2023-11-18T03:23:07;6.30;99.90
10316;DHT22;5203;48.976;8.306;2023-11-18T03:25:34;6.30;99.90
10316;DHT22;5203;48.976;8.306;2023-11-18T03:28:00;6.20;99.90
10316;DHT22;5203;48.976;8.306;2023-11-18T03:30:26;6.20;99.90
10316;DHT22;5203;48.976;8.306;2023-11-18T03:32:54;6.20;99.90
10316;DHT22;5203;48.976;8.306;2023-11-18T03:35:20;6.20;99.90
10316;DHT22;5203;48.976;8.306;2023-11-18T03:37:46;6.20;99.90
10316;DHT22;5203;48.976;8.306;2023-11-18T03:40:13;6.20;99.90
10316;DHT22;5203;48.976;8.306;2023-11-18T03:42:43;6.20;99.90
10316;DHT22;5203;48.976;8.306;2023-11-18T03:45:09;6.20;99.90
10316;DHT22;5203;48.976;8.306;2023-11-18T03:47:34;6.20;99.90
10316;DHT22;5203;48.976;8.306;2023-11-18T03:50:01;6.20;99.90
10316;DHT22;5203;48.976;8.306;2023-11-18T03:52:27;6.20;99.90
10316;DHT22;5203;48.976;8.306;2023-11-18T03:54:53;6.20;99.90
10316;DHT22;5203;48.976;8.306;2023-11-18T03:57:21;6.20;99.90
10316;DHT22;5203;48.976;8.306;2023-11-18T03:59:49;6.20;99.90
10316;DHT22;5203;48.976;8.306;2023-11-18T04:02:16;6.20;99.90
10316;DHT22;5203;48.976;8.306;2023-11-18T04:04:41;6.20;99.90
10316;DHT22;5203;48.976;8.306;2023-11-18T04:07:07;6.10;99.90
10316;DHT22;5203;48.976;8.306;2023-11-18T04:09:33;6.10;99.90
10316;DHT22;5203;48.976;8.306;2023-11-18T04:11:58;6.00;99.90
10316;DHT22;5203;48.976;8.306;2023-11-18T04:14:24;6.00;99.90
10316;DHT22;5203;48.976;8.306;2023-11-18T04:16:52;5.90;99.90
10316;DHT22;5203;48.976;8.306;2023-11-18T04:19:19;5.80;99.90
10316;DHT22;5203;48.976;8.306;2023-11-18T04:21:44;5.80;99.90
10316;DHT22;5203;48.976;8.306;2023-11-18T04:24:14;5.80;99.90
10316;DHT22;5203;48.976;8.306;2023-11-18T04:26:40;5.80;99.90
10316;DHT22;5203;48.976;8.306;2023-11-18T04:29:06;5.80;99.90
10316;DHT22;5203;48.976;8.306;2023-11-18T04:31:32;5.80;99.90
10316;DHT22;5203;48.976;8.306;2023-11-18T04:33:57;5.70;99.90
10316;DHT22;5203;48.976;8.306;2023-11-18T04:36:23;5.70;99.90
10316;DHT22;5203;48.976;8.306;2023-11-18T04:38:49;5.70;99.90
10316;DHT22;5203;48.976;8.306;2023-11-18T04:41:16;5.70;99.90
10316;DHT22;5203;48.976;8.306;2023-11-18T04:43:42;5.70;99.90
10316;DHT22;5203;48.976;8.306;2023-11-18T04:46:08;5.70;99.90
10316;DHT22;5203;48.976;8.306;2023-11-18T04:48:34;5.70;99.90
10316;DHT22;5203;48.976;8.306;2023-11-18T04:51:00;5.70;99.90
10316;DHT22;5203;48.976;8.306;2023-11-18T04:53:26;5.70;99.90
10316;DHT22;5203;48.976;8.306;2023-11-18T04:55:52;5.80;99.90
10316;DHT22;5203;48.976;8.306;2023-11-18T04:58:18;5.80;99.90
10316;DHT22;5203;48.976;8.306;2023-11-18T05:00:44;5.80;99.90
10316;DHT22;5203;48.976;8.306;2023-11-18T05:03:10;5.80;99.90
10316;DHT22;5203;48.976;8.306;2023-11-18T05:05:39;5.90;99.90
10316;DHT22;5203;48.976;8.306;2023-11-18T05:08:17;5.80;99.90
10316;DHT22;5203;48.976;8.306;2023-11-18T05:10:47;5.90;99.90
10316;DHT22;5203;48.976;8.306;2023-11-18T05:13:16;5.90;99.90
10316;DHT22;5203;48.976;8.306;2023-11-18T05:15:46;5.80;99.90
10316;DHT22;5203;48.976;8.306;2023-11-18T05:18:16;5.70;99.90
10316;DHT22;5203;48.976;8.306;2023-11-18T05:20:42;5.70;99.90
10316;DHT22;5203;48.976;8.306;2023-11-18T05:23:08;5.70;99.90
10316;DHT22;5203;48.976;8.306;2023-11-18T05:25:40;5.60;99.90
10316;DHT22;5203;48.976;8.306;2023-11-18T05:28:05;5.60;99.90
10316;DHT22;5203;48.976;8.306;2023-11-18T05:30:35;5.60;99.90
10316;DHT22;5203;48.976;8.306;2023-11-18T05:33:02;5.60;99.90
10316;DHT22;5203;48.976;8.306;2023-11-18T05:35:31;5.60;99.90
10316;DHT22;5203;48.976;8.306;2023-11-18T05:37:57;5.60;99.90
10316;DHT22;5203;48.976;8.306;2023-11-18T05:40:22;5.50;99.90
10316;DHT22;5203;48.976;8.306;2023-11-18T05:42:48;5.50;99.90
10316;DHT22;5203;48.976;8.306;2023-11-18T05:45:17;5.50;99.90
10316;DHT22;5203;48.976;8.306;2023-11-18T05:47:56;5.40;99.90
10316;DHT22;5203;48.976;8.306;2023-11-18T05:50:22;5.40;99.90
10316;DHT22;5203;48.976;8.306;2023-11-18T05:52:50;5.40;99.90
10316;DHT22;5203;48.976;8.306;2023-11-18T05:55:16;5.40;99.90
10316;DHT22;5203;48.976;8.306;2023-11-18T05:57:42;5.40;99.90
10316;DHT22;5203;48.976;8.306;2023-11-18T06:00:11;5.40;99.90
10316;DHT22;5203;48.976;8.306;2023-11-18T06:02:41;5.40;99.90
10316;DHT22;5203;48.976;8.306;2023-11-18T06:05:08;5.40;99.90
10316;DHT22;5203;48.976;8.306;2023-11-18T06:07:34;5.50;99.90
10316;DHT22;5203;48.976;8.306;2023-11-18T06:10:01;5.40;99.90
10316;DHT22;5203;48.976;8.306;2023-11-18T06:12:31;5.40;99.90
10316;DHT22;5203;48.976;8.306;2023-11-18T06:14:57;5.40;99.90
10316;DHT22;5203;48.976;8.306;2023-11-18T06:17:22;5.40;99.90
10316;DHT22;5203;48.976;8.306;2023-11-18T06:19:49;5.40;99.90
10316;DHT22;5203;48.976;8.306;2023-11-18T06:22:15;5.30;99.90
10316;DHT22;5203;48.976;8.306;2023-11-18T06:24:40;5.30;99.90
10316;DHT22;5203;48.976;8.306;2023-11-18T06:27:07;5.30;99.90
10316;DHT22;5203;48.976;8.306;2023-11-18T06:29:35;5.30;99.90
10316;DHT22;5203;48.976;8.306;2023-11-18T06:32:01;5.30;99.90
10316;DHT22;5203;48.976;8.306;2023-11-18T06:34:27;5.30;99.90
10316;DHT22;5203;48.976;8.306;2023-11-18T06:36:53;5.30;99.90
10316;DHT22;5203;48.976;8.306;2023-11-18T06:39:19;5.30;99.90
10316;DHT22;5203;48.976;8.306;2023-11-18T06:41:55;5.30;99.90
10316;DHT22;5203;48.976;8.306;2023-11-18T06:44:22;5.40;99.90
10316;DHT22;5203;48.976;8.306;2023-11-18T06:46:49;5.30;99.90
10316;DHT22;5203;48.976;8.306;2023-11-18T06:49:17;5.30;99.90
10316;DHT22;5203;48.976;8.306;2023-11-18T06:51:43;5.30;99.90
10316;DHT22;5203;48.976;8.306;2023-11-18T06:54:09;5.30;99.90
10316;DHT22;5203;48.976;8.306;2023-11-18T06:56:37;5.30;99.90
10316;DHT22;5203;48.976;8.306;2023-11-18T06:59:07;5.20;99.90
10316;DHT22;5203;48.976;8.306;2023-11-18T07:01:36;5.20;99.90
10316;DHT22;5203;48.976;8.306;2023-11-18T07:04:02;5.20;99.90
10316;DHT22;5203;48.976;8.306;2023-11-18T07:06:28;5.20;99.90
10316;DHT22;5203;48.976;8.306;2023-11-18T07:08:54;5.20;99.90
10316;DHT22;5203;48.976;8.306;2023-11-18T07:11:24;5.30;99.90
10316;DHT22;5203;48.976;8.306;2023-11-18T07:13:50;5.20;99.90
10316;DHT22;5203;48.976;8.306;2023-11-18T07:16:22;5.20;99.90
10316;DHT22;5203;48.976;8.306;2023-11-18T07:18:48;5.20;99.90
10316;DHT22;5203;48.976;8.306;2023-11-18T07:21:14;5.20;99.90
10316;DHT22;5203;48.976;8.306;2023-11-18T07:23:39;5.20;99.90
10316;DHT22;5203;48.976;8.306;2023-11-18T07:26:05;5.20;99.90
10316;DHT22;5203;48.976;8.306;2023-11-18T07:28:31;5.30;99.90
10316;DHT22;5203;48.976;8.306;2023-11-18T07:30:57;5.30;99.90
10316;DHT22;5203;48.976;8.306;2023-11-18T07:33:24;5.20;99.90
10316;DHT22;5203;48.976;8.306;2023-11-18T07:35:50;5.30;99.90
10316;DHT22;5203;48.976;8.306;2023-11-18T07:38:16;5.40;99.90
10316;DHT22;5203;48.976;8.306;2023-11-18T07:40:45;5.40;99.90
10316;DHT22;5203;48.976;8.306;2023-11-18T07:43:17;5.40;99.90
10316;DHT22;5203;48.976;8.306;2023-11-18T07:45:43;5.40;99.90
10316;DHT22;5203;48.976;8.306;2023-11-18T07:48:11;5.40;99.90
10316;DHT22;5203;48.976;8.306;2023-11-18T07:50:42;5.40;99.90
10316;DHT22;5203;48.976;8.306;2023-11-18T07:53:13;5.40;99.90
10316;DHT22;5203;48.976;8.306;2023-11-18T07:55:39;5.40;99.90
10316;DHT22;5203;48.976;8.306;2023-11-18T07:58:08;5.40;99.90
10316;DHT22;5203;48.976;8.306;2023-11-18T08:00:42;5.40;99.90
10316;DHT22;5203;48.976;8.306;2023-11-18T08:03:09;5.30;99.90
10316;DHT22;5203;48.976;8.306;2023-11-18T08:05:39;5.30;99.90
10316;DHT22;5203;48.976;8.306;2023-11-18T08:08:09;5.40;99.90
10316;DHT22;5203;48.976;8.306;2023-11-18T08:10:36;5.50;99.90
10316;DHT22;5203;48.976;8.306;2023-11-18T08:13:08;5.50;99.90
10316;DHT22;5203;48.976;8.306;2023-11-18T08:15:37;5.50;99.90
10316;DHT22;5203;48.976;8.306;2023-11-18T08:18:03;5.50;99.90
10316;DHT22;5203;48.976;8.306;2023-11-18T08:20:29;5.50;99.90
10316;DHT22;5203;48.976;8.306;2023-11-18T08:22:55;5.50;99.90
10316;DHT22;5203;48.976;8.306;2023-11-18T08:25:21;5.60;99.90
10316;DHT22;5203;48.976;8.306;2023-11-18T08:27:47;5.60;99.90
10316;DHT22;5203;48.976;8.306;2023-11-18T08:30:13;5.70;99.90
10316;DHT22;5203;48.976;8.306;2023-11-18T08:32:41;5.70;99.90
10316;DHT22;5203;48.976;8.306;2023-11-18T08:35:13;5.60;99.90
10316;DHT22;5203;48.976;8.306;2023-11-18T08:37:40;5.70;99.90
10316;DHT22;5203;48.976;8.306;2023-11-18T08:40:07;5.70;99.90
10316;DHT22;5203;48.976;8.306;2023-11-18T08:42:47;5.80;99.90
10316;DHT22;5203;48.976;8.306;2023-11-18T08:45:25;5.90;99.90
10316;DHT22;5203;48.976;8.306;2023-11-18T08:47:57;6.00;99.90
10316;DHT22;5203;48.976;8.306;2023-11-18T08:50:24;6.00;99.90
10316;DHT22;5203;48.976;8.306;2023-11-18T08:52:51;6.10;99.90
10316;DHT22;5203;48.976;8.306;2023-11-18T08:55:26;6.20;99.90
10316;DHT22;5203;48.976;8.306;2023-11-18T08:58:16;6.20;99.90
10316;DHT22;5203;48.976;8.306;2023-11-18T09:00:51;6.30;99.90
10316;DHT22;5203;48.976;8.306;2023-11-18T09:03:18;6.30;99.90
10316;DHT22;5203;48.976;8.306;2023-11-18T09:06:00;6.30;99.90
10316;DHT22;5203;48.976;8.306;2023-11-18T09:08:30;6.40;99.90
10316;DHT22;5203;48.976;8.306;2023-11-18T09:11:10;6.50;99.90
10316;DHT22;5203;48.976;8.306;2023-11-18T09:13:37;6.60;99.90
10316;DHT22;5203;48.976;8.306;2023-11-18T09:16:06;6.60;99.90
10316;DHT22;5203;48.976;8.306;2023-11-18T09:18:39;6.80;99.90
10316;DHT22;5203;48.976;8.306;2023-11-18T09:21:12;6.80;99.90
10316;DHT22;5203;48.976;8.306;2023-11-18T09:23:43;6.80;99.90
10316;DHT22;5203;48.976;8.306;2023-11-18T09:26:09;6.90;99.90
10316;DHT22;5203;48.976;8.306;2023-11-18T09:28:36;6.90;99.90
10316;DHT22;5203;48.976;8.306;2023-11-18T09:31:02;6.90;99.90
10316;DHT22;5203;48.976;8.306;2023-11-18T09:33:30;6.90;99.90
10316;DHT22;5203;48.976;8.306;2023-11-18T09:36:00;7.00;99.90
10316;DHT22;5203;48.976;8.306;2023-11-18T09:38:30;7.10;99.90
10316;DHT22;5203;48.976;8.306;2023-11-18T09:40:59;7.10;99.90
10316;DHT22;5203;48.976;8.306;2023-11-18T09:43:32;6.90;99.90
10316;DHT22;5203;48.976;8.306;2023-11-18T09:46:04;6.90;99.90
10316;DHT22;5203;48.976;8.306;2023-11-18T09:48:43;7.00;99.90
10316;DHT22;5203;48.976;8.306;2023-11-18T09:51:19;7.10;99.90
10316;DHT22;5203;48.976;8.306;2023-11-18T09:53:55;7.20;99.90
10316;DHT22;5203;48.976;8.306;2023-11-18T09:59:33;7.30;99.90
10316;DHT22;5203;48.976;8.306;2023-11-18T10:02:02;7.40;99.90
10316;DHT22;5203;48.976;8.306;2023-11-18T10:04:30;7.30;99.90
10316;DHT22;5203;48.976;8.306;2023-11-18T10:06:57;7.40;99.90
10316;DHT22;5203;48.976;8.306;2023-11-18T10:09:26;7.40;99.90
10316;DHT22;5203;48.976;8.306;2023-11-18T10:12:18;7.50;99.90
10316;DHT22;5203;48.976;8.306;2023-11-18T10:14:49;7.50;99.90
10316;DHT22;5203;48.976;8.306;2023-11-18T10:17:18;7.50;99.90
10316;DHT22;5203;48.976;8.306;2023-11-18T10:19:54;7.50;99.90
10316;DHT22;5203;48.976;8.306;2023-11-18T10:22:27;7.50;99.90
10316;DHT22;5203;48.976;8.306;2023-11-18T10:24:58;7.60;99.90
10316;DHT22;5203;48.976;8.306;2023-11-18T10:27:30;7.60;99.90
10316;DHT22;5203;48.976;8.306;2023-11-18T10:32:23;7.80;99.90
10316;DHT22;5203;48.976;8.306;2023-11-18T10:34:56;7.80;99.90
10316;DHT22;5203;48.976;8.306;2023-11-18T10:37:23;7.80;99.90
10316;DHT22;5203;48.976;8.306;2023-11-18T10:39:49;7.90;99.90
10316;DHT22;5203;48.976;8.306;2023-11-18T10:42:18;7.80;99.90
10316;DHT22;5203;48.976;8.306;2023-11-18T10:44:57;7.80;99.90
10316;DHT22;5203;48.976;8.306;2023-11-18T10:47:25;7.60;99.90
10316;DHT22;5203;48.976;8.306;2023-11-18T10:49:53;7.60;99.90
10316;DHT22;5203;48.976;8.306;2023-11-18T10:52:19;7.70;99.90
10316;DHT22;5203;48.976;8.306;2023-11-18T10:54:52;7.70;99.90
10316;DHT22;5203;48.976;8.306;2023-11-18T10:57:25;7.70;99.90
10316;DHT22;5203;48.976;8.306;2023-11-18T11:02:41;7.70;99.90
10316;DHT22;5203;48.976;8.306;2023-11-18T11:05:10;7.70;99.90
10316;DHT22;5203;48.976;8.306;2023-11-18T11:07:45;7.80;99.90
10316;DHT22;5203;48.976;8.306;2023-11-18T11:10:11;7.70;99.90
10316;DHT22;5203;48.976;8.306;2023-11-18T11:12:53;7.70;99.90
10316;DHT22;5203;48.976;8.306;2023-11-18T11:15:31;7.80;99.90
10316;DHT22;5203;48.976;8.306;2023-11-18T11:18:05;7.80;99.90
10316;DHT22;5203;48.976;8.306;2023-11-18T11:23:30;7.80;99.90
10316;DHT22;5203;48.976;8.306;2023-11-18T11:31:48;7.80;99.90
10316;DHT22;5203;48.976;8.306;2023-11-18T11:34:19;7.80;99.90
10316;DHT22;5203;48.976;8.306;2023-11-18T11:36:51;7.70;99.90
10316;DHT22;5203;48.976;8.306;2023-11-18T11:39:18;7.70;99.90
10316;DHT22;5203;48.976;8.306;2023-11-18T11:41:52;7.80;99.90
10316;DHT22;5203;48.976;8.306;2023-11-18T11:44:20;7.80;99.90
10316;DHT22;5203;48.976;8.306;2023-11-18T11:46:47;7.80;99.90
10316;DHT22;5203;48.976;8.306;2023-11-18T11:49:19;7.80;99.90
10316;DHT22;5203;48.976;8.306;2023-11-18T11:54:34;7.90;99.90
10316;DHT22;5203;48.976;8.306;2023-11-18T11:57:03;7.90;99.90
10316;DHT22;5203;48.976;8.306;2023-11-18T12:02:26;7.90;99.90
10316;DHT22;5203;48.976;8.306;2023-11-18T12:04:58;7.90;99.90
10316;DHT22;5203;48.976;8.306;2023-11-18T12:07:27;7.90;99.90
10316;DHT22;5203;48.976;8.306;2023-11-18T12:09:57;7.90;99.90
10316;DHT22;5203;48.976;8.306;2023-11-18T12:12:25;7.90;99.90
10316;DHT22;5203;48.976;8.306;2023-11-18T12:14:55;8.00;99.90
10316;DHT22;5203;48.976;8.306;2023-11-18T12:20:40;8.00;99.90
10316;DHT22;5203;48.976;8.306;2023-11-18T12:23:08;8.00;99.90
10316;DHT22;5203;48.976;8.306;2023-11-18T12:25:43;8.00;99.90
10316;DHT22;5203;48.976;8.306;2023-11-18T12:28:12;8.00;99.90
10316;DHT22;5203;48.976;8.306;2023-11-18T12:30:41;8.00;99.90
10316;DHT22;5203;48.976;8.306;2023-11-18T12:33:20;8.00;99.90
10316;DHT22;5203;48.976;8.306;2023-11-18T12:40:54;7.80;99.90
10316;DHT22;5203;48.976;8.306;2023-11-18T12:43:47;8.00;99.90
10316;DHT22;5203;48.976;8.306;2023-11-18T12:46:47;8.00;99.90
10316;DHT22;5203;48.976;8.306;2023-11-18T12:49:19;8.00;99.90
10316;DHT22;5203;48.976;8.306;2023-11-18T12:51:58;8.10;99.90
10316;DHT22;5203;48.976;8.306;2023-11-18T12:54:28;8.10;99.90
10316;DHT22;5203;48.976;8.306;2023-11-18T12:56:55;8.00;99.90
10316;DHT22;5203;48.976;8.306;2023-11-18T12:59:21;8.10;99.90
10316;DHT22;5203;48.976;8.306;2023-11-18T13:01:49;8.10;99.90
10316;DHT22;5203;48.976;8.306;2023-11-18T13:04:33;8.10;99.90
10316;DHT22;5203;48.976;8.306;2023-11-18T13:07:05;8.10;99.90
10316;DHT22;5203;48.976;8.306;2023-11-18T13:09:34;8.10;99.90
10316;DHT22;5203;48.976;8.306;2023-11-18T13:12:03;8.10;99.90
10316;DHT22;5203;48.976;8.306;2023-11-18T13:14:35;8.20;99.90
10316;DHT22;5203;48.976;8.306;2023-11-18T13:17:18;8.20;99.90
10316;DHT22;5203;48.976;8.306;2023-11-18T13:19:50;8.30;99.90
10316;DHT22;5203;48.976;8.306;2023-11-18T13:22:38;8.30;99.90
10316;DHT22;5203;48.976;8.306;2023-11-18T13:25:08;8.10;99.90
10316;DHT22;5203;48.976;8.306;2023-11-18T13:27:35;8.10;99.90
10316;DHT22;5203;48.976;8.306;2023-11-18T13:30:05;8.10;99.90
10316;DHT22;5203;48.976;8.306;2023-11-18T13:32:31;8.20;99.90
10316;DHT22;5203;48.976;8.306;2023-11-18T13:34:57;8.30;99.90
10316;DHT22;5203;48.976;8.306;2023-11-18T13:37:23;8.30;99.90
10316;DHT22;5203;48.976;8.306;2023-11-18T13:39:55;8.30;99.90
10316;DHT22;5203;48.976;8.306;2023-11-18T13:42:24;8.30;99.90
10316;DHT22;5203;48.976;8.306;2023-11-18T13:45:08;8.40;99.90
10316;DHT22;5203;48.976;8.306;2023-11-18T13:47:36;8.30;99.90
10316;DHT22;5203;48.976;8.306;2023-11-18T13:50:06;8.30;99.90
10316;DHT22;5203;48.976;8.306;2023-11-18T13:52:34;8.30;99.90
10316;DHT22;5203;48.976;8.306;2023-11-18T13:55:00;8.40;99.90
10316;DHT22;5203;48.976;8.306;2023-11-18T13:57:26;8.50;99.90
10316;DHT22;5203;48.976;8.306;2023-11-18T13:59:52;8.40;99.90
10316;DHT22;5203;48.976;8.306;2023-11-18T14:02:19;8.40;99.90
10316;DHT22;5203;48.976;8.306;2023-11-18T14:04:46;8.50;99.90
10316;DHT22;5203;48.976;8.306;2023-11-18T14:07:17;8.60;99.90
10316;DHT22;5203;48.976;8.306;2023-11-18T14:09:46;8.60;99.90
10316;DHT22;5203;48.976;8.306;2023-11-18T14:12:13;8.70;99.90
10316;DHT22;5203;48.976;8.306;2023-11-18T14:14:39;8.70;99.90
10316;DHT22;5203;48.976;8.306;2023-11-18T14:17:05;8.70;99.90
10316;DHT22;5203;48.976;8.306;2023-11-18T14:19:36;8.70;99.90
10316;DHT22;5203;48.976;8.306;2023-11-18T14:22:03;8.70;99.90
10316;DHT22;5203;48.976;8.306;2023-11-18T14:24:35;8.80;99.90
10316;DHT22;5203;48.976;8.306;2023-11-18T14:27:00;8.80;99.90
10316;DHT22;5203;48.976;8.306;2023-11-18T14:29:26;8.80;99.90
10316;DHT22;5203;48.976;8.306;2023-11-18T14:31:53;8.80;99.90
10316;DHT22;5203;48.976;8.306;2023-11-18T14:34:19;8.80;99.90
10316;DHT22;5203;48.976;8.306;2023-11-18T14:36:45;8.80;99.90
10316;DHT22;5203;48.976;8.306;2023-11-18T14:39:11;8.80;99.90
10316;DHT22;5203;48.976;8.306;2023-11-18T14:41:39;8.80;99.90
10316;DHT22;5203;48.976;8.306;2023-11-18T14:44:06;8.80;99.90
10316;DHT22;5203;48.976;8.306;2023-11-18T14:46:35;8.70;99.90
10316;DHT22;5203;48.976;8.306;2023-11-18T14:49:00;8.70;99.90
10316;DHT22;5203;48.976;8.306;2023-11-18T14:51:26;8.70;99.90
10316;DHT22;5203;48.976;8.306;2023-11-18T14:53:52;8.60;99.90
10316;DHT22;5203;48.976;8.306;2023-11-18T14:56:18;8.60;99.90
10316;DHT22;5203;48.976;8.306;2023-11-18T14:58:44;8.60;99.90
10316;DHT22;5203;48.976;8.306;2023-11-18T15:01:15;8.50;99.90
10316;DHT22;5203;48.976;8.306;2023-11-18T15:03:41;8.50;99.90
10316;DHT22;5203;48.976;8.306;2023-11-18T15:06:06;8.60;99.90
10316;DHT22;5203;48.976;8.306;2023-11-18T15:08:32;8.60;99.90
10316;DHT22;5203;48.976;8.306;2023-11-18T15:10:58;8.60;99.90
10316;DHT22;5203;48.976;8.306;2023-11-18T15:13:24;8.50;99.90
10316;DHT22;5203;48.976;8.306;2023-11-18T15:15:50;8.40;99.90
10316;DHT22;5203;48.976;8.306;2023-11-18T15:18:16;8.40;99.90
10316;DHT22;5203;48.976;8.306;2023-11-18T15:20:46;8.40;99.90
10316;DHT22;5203;48.976;8.306;2023-11-18T15:23:13;8.40;99.90
10316;DHT22;5203;48.976;8.306;2023-11-18T15:25:41;8.40;99.90
10316;DHT22;5203;48.976;8.306;2023-11-18T15:28:07;8.40;99.90
10316;DHT22;5203;48.976;8.306;2023-11-18T15:30:40;8.40;99.90
10316;DHT22;5203;48.976;8.306;2023-11-18T15:33:06;8.40;99.90
10316;DHT22;5203;48.976;8.306;2023-11-18T15:35:38;8.30;99.90
10316;DHT22;5203;48.976;8.306;2023-11-18T15:38:04;8.30;99.90
10316;DHT22;5203;48.976;8.306;2023-11-18T15:40:37;8.30;99.90
10316;DHT22;5203;48.976;8.306;2023-11-18T15:43:04;8.30;99.90
10316;DHT22;5203;48.976;8.306;2023-11-18T15:45:33;8.20;99.90
10316;DHT22;5203;48.976;8.306;2023-11-18T15:48:00;8.20;99.90
10316;DHT22;5203;48.976;8.306;2023-11-18T15:50:27;8.20;99.90
10316;DHT22;5203;48.976;8.306;2023-11-18T15:52:55;8.20;99.90
10316;DHT22;5203;48.976;8.306;2023-11-18T15:55:21;8.20;99.90
10316;DHT22;5203;48.976;8.306;2023-11-18T15:57:51;8.20;99.90
10316;DHT22;5203;48.976;8.306;2023-11-18T16:00:22;8.20;99.90
10316;DHT22;5203;48.976;8.306;2023-11-18T16:02:58;8.20;99.90
10316;DHT22;5203;48.976;8.306;2023-11-18T16:05:26;8.10;99.90
10316;DHT22;5203;48.976;8.306;2023-11-18T16:07:53;8.10;99.90
10316;DHT22;5203;48.976;8.306;2023-11-18T16:10:20;8.10;99.90
10316;DHT22;5203;48.976;8.306;2023-11-18T16:15:19;8.00;99.90
10316;DHT22;5203;48.976;8.306;2023-11-18T16:17:48;8.10;99.90
10316;DHT22;5203;48.976;8.306;2023-11-18T16:20:15;8.00;99.90
10316;DHT22;5203;48.976;8.306;2023-11-18T16:22:45;8.00;99.90
10316;DHT22;5203;48.976;8.306;2023-11-18T16:27:47;8.00;99.90
10316;DHT22;5203;48.976;8.306;2023-11-18T16:30:13;8.00;99.90
10316;DHT22;5203;48.976;8.306;2023-11-18T16:32:40;8.10;99.90
10316;DHT22;5203;48.976;8.306;2023-11-18T16:35:05;8.00;99.90
10316;DHT22;5203;48.976;8.306;2023-11-18T16:37:41;8.00;99.90
10316;DHT22;5203;48.976;8.306;2023-11-18T16:40:09;8.10;99.90
10316;DHT22;5203;48.976;8.306;2023-11-18T16:42:46;8.00;99.90
10316;DHT22;5203;48.976;8.306;2023-11-18T16:45:13;8.00;99.90
10316;DHT22;5203;48.976;8.306;2023-11-18T16:47:40;8.00;99.90